Aérodrome :
LOGIN :

S'inscrire | Disclaimer

   EN    FR    IT 

 










Légende :    VFR   VFR Marginal   IFR   IFR Intensif   IFR Très Intensif
Visi : 
Plafond : 
>= 8 km
>= 3000ft
5 à 8 km
1000 à 3000 ft
1500m à 5 km
500 à 1000 ft
800 à 1500m
200 à 500 ft
< 800m
< 200 ft
Symboles :   Orages  Brouillard  Fortes neiges  Fortes précipitations  Vent > 20 kt
SIGMETs :   Divers  Orages  Givrage  Turbulence  Onde Orograph.  Cendres Volcan.






- Altitude de l'aérodrome : 53 ft
- Code IATA : HAM


EDDH - Hamburg

DERNIER METAR :
  • 231050Z 21008KT 9999 FEW015 13/10 Q1010 NOSIG

METARs EXPIRÉS :
  • 231020Z 22007KT 9999 FEW011 13/11 Q1010 NOSIG
  • 230950Z 22005KT 190V260 9999 FEW010 12/11 Q1011 NOSIG
  • 230920Z 23006KT 210V270 8000 SCT007 12/10 Q1011 TEMPO BKN007
  • 230850Z 24006KT 210V270 7000 SCT005 11/10 Q1011 TEMPO BKN005
  • 230820Z 23008KT 6000 BKN005 11/10 Q1011 TEMPO 4500 BR SCT005

TAF TAF EDDH
Valide du 23 à 06h jusqu'au 24 à 12h UTC


230500Z 2306/2412 23007KT 9999 FEW025
PROB30
TEMPO 2306/2309 4000 BR BKN004
BECMG 2400/2403 BKN013
TEMPO 2403/2408 4500 BR BKN006
BECMG 2408/2410 22012KT SCT025
TEMPO 2410/2412 23015G25KT



MET'MAP, la Météo Aéronautique d'un coup d'oeil ! - Copyright ORBIFLY Décembre 2007 - Disclaimer

ORBIFLY MET'MAP TEAM :

Programmation & Développement : Alexandra Zaïnal
Sur une idée originale de : Baudouin d'Aumeries
Assistance à la programmation : Marc-Olivier Méhu
Soutien technique & logistique : Manuel Goepfert

Contact : metmap@orbifly.com




SOURCES & CREDITS :

   NOAA